sensor_id;sensor_type;location;lat;lon;timestamp;temperature;humidity
84265;DHT22;74412;45.626;5.108;2024-02-23T00:00:43;9.22;60.49
84265;DHT22;74412;45.626;5.108;2024-02-23T00:03:10;9.22;60.85
84265;DHT22;74412;45.626;5.108;2024-02-23T00:05:37;9.21;60.76
84265;DHT22;74412;45.626;5.108;2024-02-23T00:08:04;9.14;60.52
84265;DHT22;74412;45.626;5.108;2024-02-23T00:10:32;9.10;60.62
84265;DHT22;74412;45.626;5.108;2024-02-23T00:12:58;9.04;60.87
84265;DHT22;74412;45.626;5.108;2024-02-23T00:15:26;9.01;59.87
84265;DHT22;74412;45.626;5.108;2024-02-23T00:17:52;8.95;59.88
84265;DHT22;74412;45.626;5.108;2024-02-23T00:20:20;8.94;59.90
84265;DHT22;74412;45.626;5.108;2024-02-23T00:22:46;8.89;59.95
84265;DHT22;74412;45.626;5.108;2024-02-23T00:25:13;8.88;59.91
84265;DHT22;74412;45.626;5.108;2024-02-23T00:27:41;8.83;60.27
84265;DHT22;74412;45.626;5.108;2024-02-23T00:30:10;8.78;60.14
84265;DHT22;74412;45.626;5.108;2024-02-23T00:32:36;8.77;59.39
84265;DHT22;74412;45.626;5.108;2024-02-23T00:35:04;8.74;59.51
84265;DHT22;74412;45.626;5.108;2024-02-23T00:37:31;8.75;59.59
84265;DHT22;74412;45.626;5.108;2024-02-23T00:40:00;8.71;59.24
84265;DHT22;74412;45.626;5.108;2024-02-23T00:42:27;8.73;59.67
84265;DHT22;74412;45.626;5.108;2024-02-23T00:44:55;8.74;59.88
84265;DHT22;74412;45.626;5.108;2024-02-23T00:47:21;8.74;60.03
84265;DHT22;74412;45.626;5.108;2024-02-23T00:49:48;8.73;60.09
84265;DHT22;74412;45.626;5.108;2024-02-23T00:52:15;8.74;60.52
84265;DHT22;74412;45.626;5.108;2024-02-23T00:54:42;8.68;60.32
84265;DHT22;74412;45.626;5.108;2024-02-23T00:57:09;8.71;60.58
84265;DHT22;74412;45.626;5.108;2024-02-23T00:59:36;8.70;60.76
84265;DHT22;74412;45.626;5.108;2024-02-23T01:02:04;8.68;59.95
84265;DHT22;74412;45.626;5.108;2024-02-23T01:04:31;8.68;59.97
84265;DHT22;74412;45.626;5.108;2024-02-23T01:06:58;8.70;60.51
84265;DHT22;74412;45.626;5.108;2024-02-23T01:09:25;8.70;60.44
84265;DHT22;74412;45.626;5.108;2024-02-23T01:11:52;8.71;60.29
84265;DHT22;74412;45.626;5.108;2024-02-23T01:14:19;8.68;61.51
84265;DHT22;74412;45.626;5.108;2024-02-23T01:16:46;8.73;60.21
84265;DHT22;74412;45.626;5.108;2024-02-23T01:19:14;8.71;60.83
84265;DHT22;74412;45.626;5.108;2024-02-23T01:21:41;8.70;60.42
84265;DHT22;74412;45.626;5.108;2024-02-23T01:24:08;8.64;59.55
84265;DHT22;74412;45.626;5.108;2024-02-23T01:26:35;8.61;59.82
84265;DHT22;74412;45.626;5.108;2024-02-23T01:29:02;8.59;60.32
84265;DHT22;74412;45.626;5.108;2024-02-23T01:31:32;8.57;59.86
84265;DHT22;74412;45.626;5.108;2024-02-23T01:33:58;8.56;59.97
84265;DHT22;74412;45.626;5.108;2024-02-23T01:36:26;8.50;59.87
84265;DHT22;74412;45.626;5.108;2024-02-23T01:38:53;8.46;60.16
84265;DHT22;74412;45.626;5.108;2024-02-23T01:41:20;8.44;61.46
84265;DHT22;74412;45.626;5.108;2024-02-23T01:43:46;8.40;61.18
84265;DHT22;74412;45.626;5.108;2024-02-23T01:46:15;8.40;62.50
84265;DHT22;74412;45.626;5.108;2024-02-23T01:48:43;8.42;62.99
84265;DHT22;74412;45.626;5.108;2024-02-23T01:51:11;8.39;61.61
84265;DHT22;74412;45.626;5.108;2024-02-23T01:53:39;8.36;62.13
84265;DHT22;74412;45.626;5.108;2024-02-23T01:56:06;8.32;63.47
84265;DHT22;74412;45.626;5.108;2024-02-23T01:58:33;8.30;60.68
84265;DHT22;74412;45.626;5.108;2024-02-23T02:01:01;8.30;62.01
84265;DHT22;74412;45.626;5.108;2024-02-23T02:03:28;8.26;62.84
84265;DHT22;74412;45.626;5.108;2024-02-23T02:05:56;8.20;63.54
84265;DHT22;74412;45.626;5.108;2024-02-23T02:08:23;8.20;64.07
84265;DHT22;74412;45.626;5.108;2024-02-23T02:10:52;8.14;63.92
84265;DHT22;74412;45.626;5.108;2024-02-23T02:13:18;8.12;64.15
84265;DHT22;74412;45.626;5.108;2024-02-23T02:15:45;8.06;62.44
84265;DHT22;74412;45.626;5.108;2024-02-23T02:18:11;8.06;62.93
84265;DHT22;74412;45.626;5.108;2024-02-23T02:20:40;8.01;60.44
84265;DHT22;74412;45.626;5.108;2024-02-23T02:23:16;7.93;62.02
84265;DHT22;74412;45.626;5.108;2024-02-23T02:25:43;7.92;63.10
84265;DHT22;74412;45.626;5.108;2024-02-23T02:28:11;7.88;60.84
84265;DHT22;74412;45.626;5.108;2024-02-23T02:30:38;7.86;59.67
84265;DHT22;74412;45.626;5.108;2024-02-23T02:33:04;7.81;59.80
84265;DHT22;74412;45.626;5.108;2024-02-23T02:35:31;7.78;59.69
84265;DHT22;74412;45.626;5.108;2024-02-23T02:37:58;7.77;61.16
84265;DHT22;74412;45.626;5.108;2024-02-23T02:40:24;7.78;60.78
84265;DHT22;74412;45.626;5.108;2024-02-23T02:42:51;7.75;59.88
84265;DHT22;74412;45.626;5.108;2024-02-23T02:45:19;7.72;61.01
84265;DHT22;74412;45.626;5.108;2024-02-23T02:47:45;7.77;62.22
84265;DHT22;74412;45.626;5.108;2024-02-23T02:50:12;7.71;63.05
84265;DHT22;74412;45.626;5.108;2024-02-23T02:52:39;7.69;63.88
84265;DHT22;74412;45.626;5.108;2024-02-23T02:55:06;7.65;63.97
84265;DHT22;74412;45.626;5.108;2024-02-23T02:57:33;7.62;64.19
84265;DHT22;74412;45.626;5.108;2024-02-23T03:00:01;7.61;64.22
84265;DHT22;74412;45.626;5.108;2024-02-23T03:02:31;7.61;63.87
84265;DHT22;74412;45.626;5.108;2024-02-23T03:04:58;7.57;64.02
84265;DHT22;74412;45.626;5.108;2024-02-23T03:07:24;7.57;64.23
84265;DHT22;74412;45.626;5.108;2024-02-23T03:09:51;7.51;64.46
84265;DHT22;74412;45.626;5.108;2024-02-23T03:12:18;7.44;64.62
84265;DHT22;74412;45.626;5.108;2024-02-23T03:14:44;7.35;64.52
84265;DHT22;74412;45.626;5.108;2024-02-23T03:17:11;7.28;64.82
84265;DHT22;74412;45.626;5.108;2024-02-23T03:19:39;7.21;65.22
84265;DHT22;74412;45.626;5.108;2024-02-23T03:22:06;7.16;65.27
84265;DHT22;74412;45.626;5.108;2024-02-23T03:24:33;7.10;65.51
84265;DHT22;74412;45.626;5.108;2024-02-23T03:26:59;7.00;65.67
84265;DHT22;74412;45.626;5.108;2024-02-23T03:29:26;6.94;65.73
84265;DHT22;74412;45.626;5.108;2024-02-23T03:31:54;6.90;65.94
84265;DHT22;74412;45.626;5.108;2024-02-23T03:34:21;6.84;65.97
84265;DHT22;74412;45.626;5.108;2024-02-23T03:36:49;6.80;66.26
84265;DHT22;74412;45.626;5.108;2024-02-23T03:39:15;6.77;66.78
84265;DHT22;74412;45.626;5.108;2024-02-23T03:41:42;6.73;66.66
84265;DHT22;74412;45.626;5.108;2024-02-23T03:44:09;6.69;66.83
84265;DHT22;74412;45.626;5.108;2024-02-23T03:46:35;6.71;66.49
84265;DHT22;74412;45.626;5.108;2024-02-23T03:49:02;6.66;67.25
84265;DHT22;74412;45.626;5.108;2024-02-23T03:51:29;6.66;67.31
84265;DHT22;74412;45.626;5.108;2024-02-23T03:53:59;6.66;67.03
84265;DHT22;74412;45.626;5.108;2024-02-23T03:56:25;6.65;67.59
84265;DHT22;74412;45.626;5.108;2024-02-23T03:58:52;6.63;67.24
84265;DHT22;74412;45.626;5.108;2024-02-23T04:01:18;6.62;67.32
84265;DHT22;74412;45.626;5.108;2024-02-23T04:03:45;6.56;67.32
84265;DHT22;74412;45.626;5.108;2024-02-23T04:06:12;6.53;66.97
84265;DHT22;74412;45.626;5.108;2024-02-23T04:08:39;6.52;66.91
84265;DHT22;74412;45.626;5.108;2024-02-23T04:11:08;6.46;67.07
84265;DHT22;74412;45.626;5.108;2024-02-23T04:13:38;6.42;67.44
84265;DHT22;74412;45.626;5.108;2024-02-23T04:16:05;6.38;67.21
84265;DHT22;74412;45.626;5.108;2024-02-23T04:18:32;6.35;66.58
84265;DHT22;74412;45.626;5.108;2024-02-23T04:20:59;6.33;67.15
84265;DHT22;74412;45.626;5.108;2024-02-23T04:23:25;6.36;67.32
84265;DHT22;74412;45.626;5.108;2024-02-23T04:25:52;6.35;67.74
84265;DHT22;74412;45.626;5.108;2024-02-23T04:28:21;6.35;67.52
84265;DHT22;74412;45.626;5.108;2024-02-23T04:30:48;6.38;66.43
84265;DHT22;74412;45.626;5.108;2024-02-23T04:33:14;6.36;66.12
84265;DHT22;74412;45.626;5.108;2024-02-23T04:35:41;6.33;65.78
84265;DHT22;74412;45.626;5.108;2024-02-23T04:38:08;6.35;65.96
84265;DHT22;74412;45.626;5.108;2024-02-23T04:40:35;6.35;66.06
84265;DHT22;74412;45.626;5.108;2024-02-23T04:43:02;6.33;65.96
84265;DHT22;74412;45.626;5.108;2024-02-23T04:45:29;6.38;66.25
84265;DHT22;74412;45.626;5.108;2024-02-23T04:47:56;6.36;66.43
84265;DHT22;74412;45.626;5.108;2024-02-23T04:50:23;6.33;65.94
84265;DHT22;74412;45.626;5.108;2024-02-23T04:52:49;6.29;66.24
84265;DHT22;74412;45.626;5.108;2024-02-23T04:55:16;6.29;66.98
84265;DHT22;74412;45.626;5.108;2024-02-23T04:57:43;6.25;67.11
84265;DHT22;74412;45.626;5.108;2024-02-23T05:00:10;6.22;67.33
84265;DHT22;74412;45.626;5.108;2024-02-23T05:02:38;6.15;66.81
84265;DHT22;74412;45.626;5.108;2024-02-23T05:05:06;6.11;66.89
84265;DHT22;74412;45.626;5.108;2024-02-23T05:07:33;6.08;67.23
84265;DHT22;74412;45.626;5.108;2024-02-23T05:10:00;6.01;66.84
84265;DHT22;74412;45.626;5.108;2024-02-23T05:12:26;6.01;67.19
84265;DHT22;74412;45.626;5.108;2024-02-23T05:14:53;5.99;66.52
84265;DHT22;74412;45.626;5.108;2024-02-23T05:17:20;5.98;66.32
84265;DHT22;74412;45.626;5.108;2024-02-23T05:19:48;5.95;66.92
84265;DHT22;74412;45.626;5.108;2024-02-23T05:22:14;5.97;67.38
84265;DHT22;74412;45.626;5.108;2024-02-23T05:24:41;5.95;67.05
84265;DHT22;74412;45.626;5.108;2024-02-23T05:27:09;5.91;66.85
84265;DHT22;74412;45.626;5.108;2024-02-23T05:29:36;5.91;67.10
84265;DHT22;74412;45.626;5.108;2024-02-23T05:32:03;5.91;66.93
84265;DHT22;74412;45.626;5.108;2024-02-23T05:34:29;5.88;66.46
84265;DHT22;74412;45.626;5.108;2024-02-23T05:36:57;5.86;67.11
84265;DHT22;74412;45.626;5.108;2024-02-23T05:39:24;5.84;66.60
84265;DHT22;74412;45.626;5.108;2024-02-23T05:41:50;5.84;66.95
84265;DHT22;74412;45.626;5.108;2024-02-23T05:44:17;5.83;66.94
84265;DHT22;74412;45.626;5.108;2024-02-23T05:46:44;5.81;66.54
84265;DHT22;74412;45.626;5.108;2024-02-23T05:49:11;5.80;66.58
84265;DHT22;74412;45.626;5.108;2024-02-23T05:51:37;5.77;67.22
84265;DHT22;74412;45.626;5.108;2024-02-23T05:54:05;5.74;66.94
84265;DHT22;74412;45.626;5.108;2024-02-23T05:56:32;5.75;67.19
84265;DHT22;74412;45.626;5.108;2024-02-23T05:58:58;5.73;67.35
84265;DHT22;74412;45.626;5.108;2024-02-23T06:01:25;5.70;67.62
84265;DHT22;74412;45.626;5.108;2024-02-23T06:03:52;5.67;67.54
84265;DHT22;74412;45.626;5.108;2024-02-23T06:06:20;5.66;67.71
84265;DHT22;74412;45.626;5.108;2024-02-23T06:08:47;5.60;67.90
84265;DHT22;74412;45.626;5.108;2024-02-23T06:11:16;5.56;68.22
84265;DHT22;74412;45.626;5.108;2024-02-23T06:13:42;5.54;68.19
84265;DHT22;74412;45.626;5.108;2024-02-23T06:16:10;5.58;67.83
84265;DHT22;74412;45.626;5.108;2024-02-23T06:18:37;5.53;68.49
84265;DHT22;74412;45.626;5.108;2024-02-23T06:21:11;5.51;67.60
84265;DHT22;74412;45.626;5.108;2024-02-23T06:23:38;5.53;68.05
84265;DHT22;74412;45.626;5.108;2024-02-23T06:26:05;5.47;68.09
84265;DHT22;74412;45.626;5.108;2024-02-23T06:28:33;5.47;68.02
84265;DHT22;74412;45.626;5.108;2024-02-23T06:31:00;5.46;68.23
84265;DHT22;74412;45.626;5.108;2024-02-23T06:33:26;5.43;68.09
84265;DHT22;74412;45.626;5.108;2024-02-23T06:35:53;5.43;68.21
84265;DHT22;74412;45.626;5.108;2024-02-23T06:38:20;5.42;68.56
84265;DHT22;74412;45.626;5.108;2024-02-23T06:40:46;5.40;68.77
84265;DHT22;74412;45.626;5.108;2024-02-23T06:43:13;5.37;68.89
84265;DHT22;74412;45.626;5.108;2024-02-23T06:45:41;5.35;69.12
84265;DHT22;74412;45.626;5.108;2024-02-23T06:48:08;5.33;69.79
84265;DHT22;74412;45.626;5.108;2024-02-23T06:50:35;5.32;70.12
84265;DHT22;74412;45.626;5.108;2024-02-23T06:53:01;5.29;70.44
84265;DHT22;74412;45.626;5.108;2024-02-23T06:55:28;5.32;70.68
84265;DHT22;74412;45.626;5.108;2024-02-23T06:57:55;5.30;71.01
84265;DHT22;74412;45.626;5.108;2024-02-23T07:00:22;5.35;70.97
84265;DHT22;74412;45.626;5.108;2024-02-23T07:02:49;5.35;71.00
84265;DHT22;74412;45.626;5.108;2024-02-23T07:05:16;5.36;71.44
84265;DHT22;74412;45.626;5.108;2024-02-23T07:07:43;5.42;71.14
84265;DHT22;74412;45.626;5.108;2024-02-23T07:10:10;5.46;71.10
84265;DHT22;74412;45.626;5.108;2024-02-23T07:12:37;5.51;70.37
84265;DHT22;74412;45.626;5.108;2024-02-23T07:15:05;5.54;70.16
84265;DHT22;74412;45.626;5.108;2024-02-23T07:17:31;5.56;70.06
84265;DHT22;74412;45.626;5.108;2024-02-23T07:20:00;5.57;70.26
84265;DHT22;74412;45.626;5.108;2024-02-23T07:22:31;5.57;69.59
84265;DHT22;74412;45.626;5.108;2024-02-23T07:24:57;5.61;70.19
84265;DHT22;74412;45.626;5.108;2024-02-23T07:27:24;5.67;70.28
84265;DHT22;74412;45.626;5.108;2024-02-23T07:29:51;5.70;70.31
84265;DHT22;74412;45.626;5.108;2024-02-23T07:32:18;5.75;70.42
84265;DHT22;74412;45.626;5.108;2024-02-23T07:34:44;5.80;70.64
84265;DHT22;74412;45.626;5.108;2024-02-23T07:37:13;5.80;70.62
84265;DHT22;74412;45.626;5.108;2024-02-23T07:39:40;5.81;70.44
84265;DHT22;74412;45.626;5.108;2024-02-23T07:42:06;5.81;70.70
84265;DHT22;74412;45.626;5.108;2024-02-23T07:44:35;5.90;70.93
84265;DHT22;74412;45.626;5.108;2024-02-23T07:47:03;5.97;70.89
84265;DHT22;74412;45.626;5.108;2024-02-23T07:49:29;6.05;71.01
84265;DHT22;74412;45.626;5.108;2024-02-23T07:51:56;6.14;71.28
84265;DHT22;74412;45.626;5.108;2024-02-23T07:54:24;6.25;71.35
84265;DHT22;74412;45.626;5.108;2024-02-23T07:56:51;6.36;71.18
84265;DHT22;74412;45.626;5.108;2024-02-23T07:59:17;6.42;71.33
84265;DHT22;74412;45.626;5.108;2024-02-23T08:01:44;6.53;71.35
84265;DHT22;74412;45.626;5.108;2024-02-23T08:04:12;6.62;71.53
84265;DHT22;74412;45.626;5.108;2024-02-23T08:06:39;6.71;71.21
84265;DHT22;74412;45.626;5.108;2024-02-23T08:09:05;6.76;70.79
84265;DHT22;74412;45.626;5.108;2024-02-23T08:11:34;6.86;69.97
84265;DHT22;74412;45.626;5.108;2024-02-23T08:14:00;6.90;69.65
84265;DHT22;74412;45.626;5.108;2024-02-23T08:16:28;6.99;69.87
84265;DHT22;74412;45.626;5.108;2024-02-23T08:18:54;7.07;69.26
84265;DHT22;74412;45.626;5.108;2024-02-23T08:21:21;7.16;69.87
84265;DHT22;74412;45.626;5.108;2024-02-23T08:23:48;7.26;70.54
84265;DHT22;74412;45.626;5.108;2024-02-23T08:26:14;7.32;70.62
84265;DHT22;74412;45.626;5.108;2024-02-23T08:28:42;7.44;70.49
84265;DHT22;74412;45.626;5.108;2024-02-23T08:31:09;7.54;70.12
84265;DHT22;74412;45.626;5.108;2024-02-23T08:33:36;7.67;70.60
84265;DHT22;74412;45.626;5.108;2024-02-23T08:36:03;7.78;69.95
84265;DHT22;74412;45.626;5.108;2024-02-23T08:38:31;7.92;68.37
84265;DHT22;74412;45.626;5.108;2024-02-23T08:40:57;8.05;68.91
84265;DHT22;74412;45.626;5.108;2024-02-23T08:43:24;8.17;68.71
84265;DHT22;74412;45.626;5.108;2024-02-23T08:45:52;8.28;67.28
84265;DHT22;74412;45.626;5.108;2024-02-23T08:48:18;8.40;68.78
84265;DHT22;74412;45.626;5.108;2024-02-23T08:50:45;8.50;67.45
84265;DHT22;74412;45.626;5.108;2024-02-23T08:53:12;8.57;67.41
84265;DHT22;74412;45.626;5.108;2024-02-23T08:55:38;8.63;67.53
84265;DHT22;74412;45.626;5.108;2024-02-23T08:58:05;8.70;67.43
84265;DHT22;74412;45.626;5.108;2024-02-23T09:00:32;8.80;67.17
84265;DHT22;74412;45.626;5.108;2024-02-23T09:03:00;8.85;69.32
84265;DHT22;74412;45.626;5.108;2024-02-23T09:05:26;8.97;68.32
84265;DHT22;74412;45.626;5.108;2024-02-23T09:07:54;9.07;67.48
84265;DHT22;74412;45.626;5.108;2024-02-23T09:10:20;9.17;67.72
84265;DHT22;74412;45.626;5.108;2024-02-23T09:12:47;9.25;67.26
84265;DHT22;74412;45.626;5.108;2024-02-23T09:15:14;9.34;67.75
84265;DHT22;74412;45.626;5.108;2024-02-23T09:17:41;9.43;66.80
84265;DHT22;74412;45.626;5.108;2024-02-23T09:20:10;9.59;67.08
84265;DHT22;74412;45.626;5.108;2024-02-23T09:22:37;9.72;67.70
84265;DHT22;74412;45.626;5.108;2024-02-23T09:25:05;9.85;65.91
84265;DHT22;74412;45.626;5.108;2024-02-23T09:27:33;9.94;66.28
84265;DHT22;74412;45.626;5.108;2024-02-23T09:30:02;10.12;66.53
84265;DHT22;74412;45.626;5.108;2024-02-23T09:32:29;10.23;65.15
84265;DHT22;74412;45.626;5.108;2024-02-23T09:34:56;10.36;63.43
84265;DHT22;74412;45.626;5.108;2024-02-23T09:37:24;10.44;63.35
84265;DHT22;74412;45.626;5.108;2024-02-23T09:39:50;10.55;62.82
84265;DHT22;74412;45.626;5.108;2024-02-23T09:42:18;10.63;62.65
84265;DHT22;74412;45.626;5.108;2024-02-23T09:44:47;10.75;62.17
84265;DHT22;74412;45.626;5.108;2024-02-23T09:47:16;10.84;61.08
84265;DHT22;74412;45.626;5.108;2024-02-23T09:49:43;10.88;60.82
84265;DHT22;74412;45.626;5.108;2024-02-23T09:52:10;10.99;60.30
84265;DHT22;74412;45.626;5.108;2024-02-23T09:54:38;11.09;61.01
84265;DHT22;74412;45.626;5.108;2024-02-23T09:57:07;11.20;61.08
84265;DHT22;74412;45.626;5.108;2024-02-23T09:59:34;11.30;60.35
84265;DHT22;74412;45.626;5.108;2024-02-23T10:02:01;11.42;60.78
84265;DHT22;74412;45.626;5.108;2024-02-23T10:04:30;11.47;59.81
84265;DHT22;74412;45.626;5.108;2024-02-23T10:06:56;11.58;59.60
84265;DHT22;74412;45.626;5.108;2024-02-23T10:09:23;11.66;59.01
84265;DHT22;74412;45.626;5.108;2024-02-23T10:11:53;11.71;59.51
84265;DHT22;74412;45.626;5.108;2024-02-23T10:14:20;11.80;59.64
84265;DHT22;74412;45.626;5.108;2024-02-23T10:16:46;11.87;58.74
84265;DHT22;74412;45.626;5.108;2024-02-23T10:19:13;11.95;58.68
84265;DHT22;74412;45.626;5.108;2024-02-23T10:21:40;12.03;55.96
84265;DHT22;74412;45.626;5.108;2024-02-23T10:24:07;12.10;57.02
84265;DHT22;74412;45.626;5.108;2024-02-23T10:26:33;12.16;57.89
84265;DHT22;74412;45.626;5.108;2024-02-23T10:29:01;12.24;58.07
84265;DHT22;74412;45.626;5.108;2024-02-23T10:31:30;12.27;56.40
84265;DHT22;74412;45.626;5.108;2024-02-23T10:33:58;12.34;56.39
84265;DHT22;74412;45.626;5.108;2024-02-23T10:36:27;12.40;56.34
84265;DHT22;74412;45.626;5.108;2024-02-23T10:38:56;12.49;56.80
84265;DHT22;74412;45.626;5.108;2024-02-23T10:41:30;12.58;55.97
84265;DHT22;74412;45.626;5.108;2024-02-23T10:43:58;12.64;54.77
84265;DHT22;74412;45.626;5.108;2024-02-23T10:46:27;12.72;54.96
84265;DHT22;74412;45.626;5.108;2024-02-23T10:48:54;12.78;54.42
84265;DHT22;74412;45.626;5.108;2024-02-23T10:51:22;12.81;55.11
84265;DHT22;74412;45.626;5.108;2024-02-23T10:53:50;12.85;53.68
84265;DHT22;74412;45.626;5.108;2024-02-23T10:56:18;12.86;52.62
84265;DHT22;74412;45.626;5.108;2024-02-23T10:58:47;12.88;52.89
84265;DHT22;74412;45.626;5.108;2024-02-23T11:01:15;12.91;54.61
84265;DHT22;74412;45.626;5.108;2024-02-23T11:03:44;12.96;55.43
84265;DHT22;74412;45.626;5.108;2024-02-23T11:06:15;13.00;53.88
84265;DHT22;74412;45.626;5.108;2024-02-23T11:08:46;13.00;53.71
84265;DHT22;74412;45.626;5.108;2024-02-23T11:11:15;12.97;51.81
84265;DHT22;74412;45.626;5.108;2024-02-23T11:13:44;12.96;52.43
84265;DHT22;74412;45.626;5.108;2024-02-23T11:16:11;12.96;51.56
84265;DHT22;74412;45.626;5.108;2024-02-23T11:18:39;12.92;53.23
84265;DHT22;74412;45.626;5.108;2024-02-23T11:21:09;12.81;52.20
84265;DHT22;74412;45.626;5.108;2024-02-23T11:23:42;12.69;52.30
84265;DHT22;74412;45.626;5.108;2024-02-23T11:26:09;12.68;52.61
84265;DHT22;74412;45.626;5.108;2024-02-23T11:28:43;12.59;52.86
84265;DHT22;74412;45.626;5.108;2024-02-23T11:31:13;12.54;52.34
84265;DHT22;74412;45.626;5.108;2024-02-23T11:33:40;12.49;53.19
84265;DHT22;74412;45.626;5.108;2024-02-23T11:36:22;12.49;52.52
84265;DHT22;74412;45.626;5.108;2024-02-23T11:38:52;12.52;52.89
84265;DHT22;74412;45.626;5.108;2024-02-23T11:41:21;12.61;52.48
84265;DHT22;74412;45.626;5.108;2024-02-23T11:43:48;12.72;52.81
84265;DHT22;74412;45.626;5.108;2024-02-23T11:46:15;12.88;52.17
84265;DHT22;74412;45.626;5.108;2024-02-23T11:48:41;13.00;50.92
84265;DHT22;74412;45.626;5.108;2024-02-23T11:51:09;13.07;50.70
84265;DHT22;74412;45.626;5.108;2024-02-23T11:53:37;13.06;52.13
84265;DHT22;74412;45.626;5.108;2024-02-23T11:56:05;12.97;52.16
84265;DHT22;74412;45.626;5.108;2024-02-23T11:58:32;12.96;52.18
84265;DHT22;74412;45.626;5.108;2024-02-23T12:00:58;13.07;51.59
84265;DHT22;74412;45.626;5.108;2024-02-23T12:03:28;13.16;49.93
84265;DHT22;74412;45.626;5.108;2024-02-23T12:05:56;13.26;50.87
84265;DHT22;74412;45.626;5.108;2024-02-23T12:08:26;13.30;50.68
84265;DHT22;74412;45.626;5.108;2024-02-23T12:10:54;13.36;50.89
84265;DHT22;74412;45.626;5.108;2024-02-23T12:13:21;13.29;49.71
84265;DHT22;74412;45.626;5.108;2024-02-23T12:15:48;13.20;50.85
84265;DHT22;74412;45.626;5.108;2024-02-23T12:18:18;13.13;49.69
84265;DHT22;74412;45.626;5.108;2024-02-23T12:20:48;13.12;51.74
84265;DHT22;74412;45.626;5.108;2024-02-23T12:23:15;13.12;51.62
84265;DHT22;74412;45.626;5.108;2024-02-23T12:25:53;13.10;51.08
84265;DHT22;74412;45.626;5.108;2024-02-23T12:28:20;13.12;52.18
84265;DHT22;74412;45.626;5.108;2024-02-23T12:30:58;13.07;50.67
84265;DHT22;74412;45.626;5.108;2024-02-23T12:33:27;13.02;51.52
84265;DHT22;74412;45.626;5.108;2024-02-23T12:35:54;12.97;51.84
84265;DHT22;74412;45.626;5.108;2024-02-23T12:38:20;12.99;51.21
84265;DHT22;74412;45.626;5.108;2024-02-23T12:40:47;13.00;50.49
84265;DHT22;74412;45.626;5.108;2024-02-23T12:43:15;12.97;51.05
84265;DHT22;74412;45.626;5.108;2024-02-23T12:45:42;12.97;51.24
84265;DHT22;74412;45.626;5.108;2024-02-23T12:48:10;12.97;51.73
84265;DHT22;74412;45.626;5.108;2024-02-23T12:50:37;12.96;51.57
84265;DHT22;74412;45.626;5.108;2024-02-23T12:53:04;12.97;51.68
84265;DHT22;74412;45.626;5.108;2024-02-23T12:55:30;12.96;50.66
84265;DHT22;74412;45.626;5.108;2024-02-23T12:57:57;12.88;51.40
84265;DHT22;74412;45.626;5.108;2024-02-23T13:00:25;12.82;51.88
84265;DHT22;74412;45.626;5.108;2024-02-23T13:02:51;12.76;50.73
84265;DHT22;74412;45.626;5.108;2024-02-23T13:05:18;12.78;50.74
84265;DHT22;74412;45.626;5.108;2024-02-23T13:07:45;12.81;51.26
84265;DHT22;74412;45.626;5.108;2024-02-23T13:10:11;12.85;51.56
84265;DHT22;74412;45.626;5.108;2024-02-23T13:12:38;12.89;52.19
84265;DHT22;74412;45.626;5.108;2024-02-23T13:15:05;12.91;50.20
84265;DHT22;74412;45.626;5.108;2024-02-23T13:17:34;12.91;51.71
84265;DHT22;74412;45.626;5.108;2024-02-23T13:20:00;12.86;50.73
84265;DHT22;74412;45.626;5.108;2024-02-23T13:22:27;12.79;51.40
84265;DHT22;74412;45.626;5.108;2024-02-23T13:24:54;12.74;52.12
84265;DHT22;74412;45.626;5.108;2024-02-23T13:27:21;12.71;52.82
84265;DHT22;74412;45.626;5.108;2024-02-23T13:29:48;12.71;51.93
84265;DHT22;74412;45.626;5.108;2024-02-23T13:32:14;12.66;51.69
84265;DHT22;74412;45.626;5.108;2024-02-23T13:34:44;12.65;52.59
84265;DHT22;74412;45.626;5.108;2024-02-23T13:37:12;12.59;52.75
84265;DHT22;74412;45.626;5.108;2024-02-23T13:39:38;12.61;53.33
84265;DHT22;74412;45.626;5.108;2024-02-23T13:42:05;12.64;52.02
84265;DHT22;74412;45.626;5.108;2024-02-23T13:44:33;12.65;53.22
84265;DHT22;74412;45.626;5.108;2024-02-23T13:47:00;12.62;52.26
84265;DHT22;74412;45.626;5.108;2024-02-23T13:49:27;12.58;51.39
84265;DHT22;74412;45.626;5.108;2024-02-23T13:51:55;12.55;51.63
84265;DHT22;74412;45.626;5.108;2024-02-23T13:54:22;12.45;51.75
84265;DHT22;74412;45.626;5.108;2024-02-23T13:56:49;12.31;52.10
84265;DHT22;74412;45.626;5.108;2024-02-23T13:59:15;12.24;52.23
84265;DHT22;74412;45.626;5.108;2024-02-23T14:01:42;12.21;52.92
84265;DHT22;74412;45.626;5.108;2024-02-23T14:04:10;12.18;52.36
84265;DHT22;74412;45.626;5.108;2024-02-23T14:06:37;12.16;53.40
84265;DHT22;74412;45.626;5.108;2024-02-23T14:09:05;12.21;52.65
84265;DHT22;74412;45.626;5.108;2024-02-23T14:11:32;12.17;53.38
84265;DHT22;74412;45.626;5.108;2024-02-23T14:13:59;12.18;52.71
84265;DHT22;74412;45.626;5.108;2024-02-23T14:16:25;12.18;53.58
84265;DHT22;74412;45.626;5.108;2024-02-23T14:18:52;12.21;53.19
84265;DHT22;74412;45.626;5.108;2024-02-23T14:21:18;12.13;53.10
84265;DHT22;74412;45.626;5.108;2024-02-23T14:23:46;12.11;53.23
84265;DHT22;74412;45.626;5.108;2024-02-23T14:26:14;12.08;53.64
84265;DHT22;74412;45.626;5.108;2024-02-23T14:28:41;12.05;52.69
84265;DHT22;74412;45.626;5.108;2024-02-23T14:31:07;12.01;53.89
84265;DHT22;74412;45.626;5.108;2024-02-23T14:33:34;11.98;53.04
84265;DHT22;74412;45.626;5.108;2024-02-23T14:36:00;11.98;53.37
84265;DHT22;74412;45.626;5.108;2024-02-23T14:38:28;11.98;53.62
84265;DHT22;74412;45.626;5.108;2024-02-23T14:40:54;11.93;53.35
84265;DHT22;74412;45.626;5.108;2024-02-23T14:43:22;11.93;53.07
84265;DHT22;74412;45.626;5.108;2024-02-23T14:45:49;11.86;53.63
84265;DHT22;74412;45.626;5.108;2024-02-23T14:48:17;11.81;53.76
84265;DHT22;74412;45.626;5.108;2024-02-23T14:50:44;11.74;53.79
84265;DHT22;74412;45.626;5.108;2024-02-23T14:53:10;11.69;54.05
84265;DHT22;74412;45.626;5.108;2024-02-23T14:55:37;11.60;53.94
84265;DHT22;74412;45.626;5.108;2024-02-23T14:58:04;11.56;54.79
84265;DHT22;74412;45.626;5.108;2024-02-23T15:00:32;11.52;55.13
84265;DHT22;74412;45.626;5.108;2024-02-23T15:02:59;11.43;56.54
84265;DHT22;74412;45.626;5.108;2024-02-23T15:05:26;11.38;58.00
84265;DHT22;74412;45.626;5.108;2024-02-23T15:07:52;11.33;59.92
84265;DHT22;74412;45.626;5.108;2024-02-23T15:10:19;11.20;60.72
84265;DHT22;74412;45.626;5.108;2024-02-23T15:12:46;10.98;60.91
84265;DHT22;74412;45.626;5.108;2024-02-23T15:15:13;10.74;62.22
84265;DHT22;74412;45.626;5.108;2024-02-23T15:17:41;10.55;62.98
84265;DHT22;74412;45.626;5.108;2024-02-23T15:20:08;10.37;64.83
84265;DHT22;74412;45.626;5.108;2024-02-23T15:22:37;10.30;65.61
84265;DHT22;74412;45.626;5.108;2024-02-23T15:25:07;10.25;65.78
84265;DHT22;74412;45.626;5.108;2024-02-23T15:27:34;10.21;66.93
84265;DHT22;74412;45.626;5.108;2024-02-23T15:30:01;10.23;67.50
84265;DHT22;74412;45.626;5.108;2024-02-23T15:32:27;10.27;67.77
84265;DHT22;74412;45.626;5.108;2024-02-23T15:34:55;10.33;67.58
84265;DHT22;74412;45.626;5.108;2024-02-23T15:37:22;10.31;67.29
84265;DHT22;74412;45.626;5.108;2024-02-23T15:39:48;10.31;66.83